sensor_id;sensor_type;location;lat;lon;timestamp;P1;durP1;ratioP1;P2;durP2;ratioP2
5710;SDS011;61291;52.524;13.422;2023-02-24T00:00:43;136.10;;;80.33;;
5710;SDS011;61291;52.524;13.422;2023-02-24T00:03:16;135.87;;;85.00;;
5710;SDS011;61291;52.524;13.422;2023-02-24T00:05:41;141.57;;;83.00;;
5710;SDS011;61291;52.524;13.422;2023-02-24T00:08:12;127.63;;;80.43;;
5710;SDS011;61291;52.524;13.422;2023-02-24T00:10:37;138.67;;;79.40;;
5710;SDS011;61291;52.524;13.422;2023-02-24T00:13:03;113.77;;;75.67;;
5710;SDS011;61291;52.524;13.422;2023-02-24T00:15:28;121.67;;;76.47;;
5710;SDS011;61291;52.524;13.422;2023-02-24T00:17:54;121.27;;;73.03;;
5710;SDS011;61291;52.524;13.422;2023-02-24T00:20:19;127.83;;;80.27;;
5710;SDS011;61291;52.524;13.422;2023-02-24T00:22:45;107.20;;;79.17;;
5710;SDS011;61291;52.524;13.422;2023-02-24T00:25:10;99.90;;;72.77;;
5710;SDS011;61291;52.524;13.422;2023-02-24T00:27:36;99.47;;;74.03;;
5710;SDS011;61291;52.524;13.422;2023-02-24T00:30:02;117.18;;;70.75;;
5710;SDS011;61291;52.524;13.422;2023-02-24T00:32:29;128.77;;;78.17;;
5710;SDS011;61291;52.524;13.422;2023-02-24T00:34:55;93.10;;;72.73;;
5710;SDS011;61291;52.524;13.422;2023-02-24T00:37:20;81.77;;;68.77;;
5710;SDS011;61291;52.524;13.422;2023-02-24T00:39:48;75.90;;;64.07;;
5710;SDS011;61291;52.524;13.422;2023-02-24T00:42:14;108.73;;;72.73;;
5710;SDS011;61291;52.524;13.422;2023-02-24T00:44:44;73.70;;;66.00;;
5710;SDS011;61291;52.524;13.422;2023-02-24T00:47:11;71.60;;;64.13;;
5710;SDS011;61291;52.524;13.422;2023-02-24T00:49:38;77.70;;;68.37;;
5710;SDS011;61291;52.524;13.422;2023-02-24T00:52:07;97.27;;;71.77;;
5710;SDS011;61291;52.524;13.422;2023-02-24T00:54:38;106.03;;;72.97;;
5710;SDS011;61291;52.524;13.422;2023-02-24T00:57:07;95.43;;;71.93;;
5710;SDS011;61291;52.524;13.422;2023-02-24T00:59:33;76.90;;;68.63;;
5710;SDS011;61291;52.524;13.422;2023-02-24T01:01:59;74.60;;;66.43;;
5710;SDS011;61291;52.524;13.422;2023-02-24T01:04:26;73.13;;;63.30;;
5710;SDS011;61291;52.524;13.422;2023-02-24T01:06:53;71.33;;;62.83;;
5710;SDS011;61291;52.524;13.422;2023-02-24T01:09:24;65.90;;;60.10;;
5710;SDS011;61291;52.524;13.422;2023-02-24T01:11:51;69.17;;;62.60;;
5710;SDS011;61291;52.524;13.422;2023-02-24T01:14:36;68.60;;;62.10;;
5710;SDS011;61291;52.524;13.422;2023-02-24T01:17:04;65.13;;;58.47;;
5710;SDS011;61291;52.524;13.422;2023-02-24T01:19:30;67.30;;;60.50;;
5710;SDS011;61291;52.524;13.422;2023-02-24T01:21:57;65.80;;;59.33;;
5710;SDS011;61291;52.524;13.422;2023-02-24T01:24:24;62.90;;;57.67;;
5710;SDS011;61291;52.524;13.422;2023-02-24T01:26:51;61.90;;;57.17;;
5710;SDS011;61291;52.524;13.422;2023-02-24T01:29:17;65.23;;;58.93;;
5710;SDS011;61291;52.524;13.422;2023-02-24T01:31:42;62.80;;;57.60;;
5710;SDS011;61291;52.524;13.422;2023-02-24T01:34:09;64.10;;;58.17;;
5710;SDS011;61291;52.524;13.422;2023-02-24T01:36:37;62.93;;;57.90;;
5710;SDS011;61291;52.524;13.422;2023-02-24T01:39:03;60.67;;;56.00;;
5710;SDS011;61291;52.524;13.422;2023-02-24T01:41:31;61.40;;;55.60;;
5710;SDS011;61291;52.524;13.422;2023-02-24T01:46:30;62.93;;;57.20;;
5710;SDS011;61291;52.524;13.422;2023-02-24T01:49:02;62.80;;;57.90;;
5710;SDS011;61291;52.524;13.422;2023-02-24T01:51:37;64.83;;;58.50;;
5710;SDS011;61291;52.524;13.422;2023-02-24T01:54:15;64.67;;;59.20;;
5710;SDS011;61291;52.524;13.422;2023-02-24T01:56:49;60.73;;;55.80;;
5710;SDS011;61291;52.524;13.422;2023-02-24T01:59:16;62.67;;;57.23;;
5710;SDS011;61291;52.524;13.422;2023-02-24T02:01:43;64.07;;;57.77;;
5710;SDS011;61291;52.524;13.422;2023-02-24T02:04:27;61.57;;;56.20;;
5710;SDS011;61291;52.524;13.422;2023-02-24T02:07:00;63.70;;;57.50;;
5710;SDS011;61291;52.524;13.422;2023-02-24T02:09:26;64.57;;;57.40;;
5710;SDS011;61291;52.524;13.422;2023-02-24T02:11:52;57.60;;;53.90;;
5710;SDS011;61291;52.524;13.422;2023-02-24T02:14:18;59.57;;;54.83;;
5710;SDS011;61291;52.524;13.422;2023-02-24T02:16:56;60.43;;;55.80;;
5710;SDS011;61291;52.524;13.422;2023-02-24T02:22:54;60.17;;;56.20;;
5710;SDS011;61291;52.524;13.422;2023-02-24T02:34:22;59.67;;;55.30;;
5710;SDS011;61291;52.524;13.422;2023-02-24T02:36:54;62.60;;;57.47;;
5710;SDS011;61291;52.524;13.422;2023-02-24T02:39:36;60.87;;;56.57;;
5710;SDS011;61291;52.524;13.422;2023-02-24T02:47:39;60.03;;;55.13;;
5710;SDS011;61291;52.524;13.422;2023-02-24T02:53:01;59.87;;;55.17;;
5710;SDS011;61291;52.524;13.422;2023-02-24T02:55:32;60.13;;;55.13;;
5710;SDS011;61291;52.524;13.422;2023-02-24T02:58:04;59.27;;;54.50;;
5710;SDS011;61291;52.524;13.422;2023-02-24T03:00:33;61.07;;;55.90;;
5710;SDS011;61291;52.524;13.422;2023-02-24T03:03:07;59.60;;;55.10;;
5710;SDS011;61291;52.524;13.422;2023-02-24T03:05:41;59.07;;;54.67;;
5710;SDS011;61291;52.524;13.422;2023-02-24T03:08:14;60.57;;;56.60;;
5710;SDS011;61291;52.524;13.422;2023-02-24T03:10:42;59.30;;;54.60;;
5710;SDS011;61291;52.524;13.422;2023-02-24T03:13:14;61.27;;;56.10;;
5710;SDS011;61291;52.524;13.422;2023-02-24T03:15:41;59.13;;;55.07;;
5710;SDS011;61291;52.524;13.422;2023-02-24T03:18:11;63.43;;;57.83;;
5710;SDS011;61291;52.524;13.422;2023-02-24T03:23:17;61.90;;;56.60;;
5710;SDS011;61291;52.524;13.422;2023-02-24T03:25:51;61.23;;;56.10;;
5710;SDS011;61291;52.524;13.422;2023-02-24T03:28:42;59.43;;;55.30;;
5710;SDS011;61291;52.524;13.422;2023-02-24T03:31:31;64.30;;;58.80;;
5710;SDS011;61291;52.524;13.422;2023-02-24T03:36:34;66.13;;;60.10;;
5710;SDS011;61291;52.524;13.422;2023-02-24T03:39:00;62.77;;;56.97;;
5710;SDS011;61291;52.524;13.422;2023-02-24T03:41:30;63.80;;;58.10;;
5710;SDS011;61291;52.524;13.422;2023-02-24T03:44:02;65.67;;;59.77;;
5710;SDS011;61291;52.524;13.422;2023-02-24T03:46:30;63.40;;;58.60;;
5710;SDS011;61291;52.524;13.422;2023-02-24T03:48:58;65.37;;;59.50;;
5710;SDS011;61291;52.524;13.422;2023-02-24T03:51:29;68.47;;;61.73;;
5710;SDS011;61291;52.524;13.422;2023-02-24T03:53:59;64.37;;;58.53;;
5710;SDS011;61291;52.524;13.422;2023-02-24T03:56:53;61.03;;;56.13;;
5710;SDS011;61291;52.524;13.422;2023-02-24T04:02:48;62.73;;;56.97;;
5710;SDS011;61291;52.524;13.422;2023-02-24T04:05:25;61.53;;;56.80;;
5710;SDS011;61291;52.524;13.422;2023-02-24T04:08:04;62.57;;;57.00;;
5710;SDS011;61291;52.524;13.422;2023-02-24T04:10:36;61.77;;;56.93;;
5710;SDS011;61291;52.524;13.422;2023-02-24T04:13:26;62.57;;;57.40;;
5710;SDS011;61291;52.524;13.422;2023-02-24T04:16:08;61.70;;;57.07;;
5710;SDS011;61291;52.524;13.422;2023-02-24T04:18:52;62.23;;;56.43;;
5710;SDS011;61291;52.524;13.422;2023-02-24T04:21:22;64.23;;;58.57;;
5710;SDS011;61291;52.524;13.422;2023-02-24T04:23:51;62.67;;;57.70;;
5710;SDS011;61291;52.524;13.422;2023-02-24T04:26:17;61.80;;;57.07;;
5710;SDS011;61291;52.524;13.422;2023-02-24T04:28:44;62.07;;;57.13;;
5710;SDS011;61291;52.524;13.422;2023-02-24T04:31:12;62.37;;;56.40;;
5710;SDS011;61291;52.524;13.422;2023-02-24T04:33:42;60.17;;;55.13;;
5710;SDS011;61291;52.524;13.422;2023-02-24T04:36:11;61.13;;;55.37;;
5710;SDS011;61291;52.524;13.422;2023-02-24T04:38:37;63.73;;;57.10;;
5710;SDS011;61291;52.524;13.422;2023-02-24T04:41:02;60.43;;;55.63;;
5710;SDS011;61291;52.524;13.422;2023-02-24T04:43:28;71.57;;;61.33;;
5710;SDS011;61291;52.524;13.422;2023-02-24T04:45:54;61.03;;;55.87;;
5710;SDS011;61291;52.524;13.422;2023-02-24T04:48:20;64.03;;;58.50;;
5710;SDS011;61291;52.524;13.422;2023-02-24T04:50:45;64.07;;;57.67;;
5710;SDS011;61291;52.524;13.422;2023-02-24T04:53:18;64.07;;;59.40;;
5710;SDS011;61291;52.524;13.422;2023-02-24T04:55:50;59.97;;;54.93;;
5710;SDS011;61291;52.524;13.422;2023-02-24T04:58:17;63.83;;;58.47;;
5710;SDS011;61291;52.524;13.422;2023-02-24T05:00:46;61.63;;;57.00;;
5710;SDS011;61291;52.524;13.422;2023-02-24T05:03:13;62.70;;;57.30;;
5710;SDS011;61291;52.524;13.422;2023-02-24T05:05:39;57.42;;;52.90;;
5710;SDS011;61291;52.524;13.422;2023-02-24T05:08:15;61.00;;;55.50;;
5710;SDS011;61291;52.524;13.422;2023-02-24T05:10:42;62.70;;;58.17;;
5710;SDS011;61291;52.524;13.422;2023-02-24T05:13:10;57.53;;;53.70;;
5710;SDS011;61291;52.524;13.422;2023-02-24T05:15:39;64.13;;;58.77;;
5710;SDS011;61291;52.524;13.422;2023-02-24T05:18:07;62.37;;;56.50;;
5710;SDS011;61291;52.524;13.422;2023-02-24T05:20:38;63.33;;;58.80;;
5710;SDS011;61291;52.524;13.422;2023-02-24T05:23:25;62.37;;;57.47;;
5710;SDS011;61291;52.524;13.422;2023-02-24T05:25:58;62.63;;;58.10;;
5710;SDS011;61291;52.524;13.422;2023-02-24T05:28:25;61.23;;;56.70;;
5710;SDS011;61291;52.524;13.422;2023-02-24T05:30:55;64.80;;;59.37;;
5710;SDS011;61291;52.524;13.422;2023-02-24T05:33:30;58.93;;;54.63;;
5710;SDS011;61291;52.524;13.422;2023-02-24T05:35:55;61.30;;;55.50;;
5710;SDS011;61291;52.524;13.422;2023-02-24T05:38:21;60.60;;;55.57;;
5710;SDS011;61291;52.524;13.422;2023-02-24T05:40:46;63.93;;;57.70;;
5710;SDS011;61291;52.524;13.422;2023-02-24T05:43:13;63.73;;;58.50;;
5710;SDS011;61291;52.524;13.422;2023-02-24T05:45:43;58.57;;;53.47;;
5710;SDS011;61291;52.524;13.422;2023-02-24T05:48:09;62.70;;;57.40;;
5710;SDS011;61291;52.524;13.422;2023-02-24T05:50:36;63.60;;;58.80;;
5710;SDS011;61291;52.524;13.422;2023-02-24T05:53:03;51.10;;;46.80;;
5710;SDS011;61291;52.524;13.422;2023-02-24T05:55:28;63.60;;;58.30;;
5710;SDS011;61291;52.524;13.422;2023-02-24T05:57:55;61.57;;;56.23;;
5710;SDS011;61291;52.524;13.422;2023-02-24T06:00:23;61.50;;;57.20;;
5710;SDS011;61291;52.524;13.422;2023-02-24T06:02:49;61.03;;;56.57;;
5710;SDS011;61291;52.524;13.422;2023-02-24T06:05:17;62.50;;;58.03;;
5710;SDS011;61291;52.524;13.422;2023-02-24T06:07:55;62.43;;;56.60;;
5710;SDS011;61291;52.524;13.422;2023-02-24T06:10:28;62.57;;;57.90;;
5710;SDS011;61291;52.524;13.422;2023-02-24T06:12:55;57.27;;;52.90;;
5710;SDS011;61291;52.524;13.422;2023-02-24T06:15:21;67.57;;;62.17;;
5710;SDS011;61291;52.524;13.422;2023-02-24T06:17:46;61.50;;;56.60;;
5710;SDS011;61291;52.524;13.422;2023-02-24T06:20:13;59.40;;;55.07;;
5710;SDS011;61291;52.524;13.422;2023-02-24T06:22:40;59.83;;;55.20;;
5710;SDS011;61291;52.524;13.422;2023-02-24T06:25:08;59.30;;;53.53;;
5710;SDS011;61291;52.524;13.422;2023-02-24T06:27:35;58.93;;;54.60;;
5710;SDS011;61291;52.524;13.422;2023-02-24T06:30:03;62.03;;;57.20;;
5710;SDS011;61291;52.524;13.422;2023-02-24T06:32:34;61.93;;;56.67;;
5710;SDS011;61291;52.524;13.422;2023-02-24T06:35:00;63.73;;;58.73;;
5710;SDS011;61291;52.524;13.422;2023-02-24T06:37:26;52.00;;;47.30;;
5710;SDS011;61291;52.524;13.422;2023-02-24T06:39:52;65.40;;;60.10;;
5710;SDS011;61291;52.524;13.422;2023-02-24T06:42:17;60.83;;;56.30;;
5710;SDS011;61291;52.524;13.422;2023-02-24T06:44:43;63.03;;;58.33;;
5710;SDS011;61291;52.524;13.422;2023-02-24T06:47:10;66.17;;;59.97;;
5710;SDS011;61291;52.524;13.422;2023-02-24T06:49:37;64.90;;;60.00;;
5710;SDS011;61291;52.524;13.422;2023-02-24T06:52:03;67.87;;;61.30;;
5710;SDS011;61291;52.524;13.422;2023-02-24T06:54:29;61.50;;;56.90;;
5710;SDS011;61291;52.524;13.422;2023-02-24T06:56:59;61.13;;;56.40;;
5710;SDS011;61291;52.524;13.422;2023-02-24T06:59:27;59.57;;;54.37;;
5710;SDS011;61291;52.524;13.422;2023-02-24T07:01:53;61.17;;;56.30;;
5710;SDS011;61291;52.524;13.422;2023-02-24T07:04:23;63.30;;;58.53;;
5710;SDS011;61291;52.524;13.422;2023-02-24T07:06:50;63.47;;;58.70;;
5710;SDS011;61291;52.524;13.422;2023-02-24T07:09:19;65.07;;;59.50;;
5710;SDS011;61291;52.524;13.422;2023-02-24T07:11:47;65.40;;;59.80;;
5710;SDS011;61291;52.524;13.422;2023-02-24T07:14:16;66.00;;;61.07;;
5710;SDS011;61291;52.524;13.422;2023-02-24T07:16:43;64.33;;;59.50;;
5710;SDS011;61291;52.524;13.422;2023-02-24T07:19:10;68.23;;;63.57;;
5710;SDS011;61291;52.524;13.422;2023-02-24T07:21:38;65.10;;;59.60;;
5710;SDS011;61291;52.524;13.422;2023-02-24T07:24:10;68.03;;;61.83;;
5710;SDS011;61291;52.524;13.422;2023-02-24T07:26:37;67.13;;;62.40;;
5710;SDS011;61291;52.524;13.422;2023-02-24T07:29:05;63.13;;;58.40;;
5710;SDS011;61291;52.524;13.422;2023-02-24T07:31:35;67.83;;;62.50;;
5710;SDS011;61291;52.524;13.422;2023-02-24T07:34:01;66.07;;;61.00;;
5710;SDS011;61291;52.524;13.422;2023-02-24T07:36:28;67.57;;;62.73;;
5710;SDS011;61291;52.524;13.422;2023-02-24T07:38:55;62.17;;;58.10;;
5710;SDS011;61291;52.524;13.422;2023-02-24T07:41:26;66.07;;;60.60;;
5710;SDS011;61291;52.524;13.422;2023-02-24T07:43:52;68.17;;;62.40;;
5710;SDS011;61291;52.524;13.422;2023-02-24T07:46:23;62.60;;;58.10;;
5710;SDS011;61291;52.524;13.422;2023-02-24T07:48:52;67.20;;;62.40;;
5710;SDS011;61291;52.524;13.422;2023-02-24T07:51:24;64.63;;;59.60;;
5710;SDS011;61291;52.524;13.422;2023-02-24T07:53:52;65.83;;;60.90;;
5710;SDS011;61291;52.524;13.422;2023-02-24T07:56:20;62.63;;;58.23;;
5710;SDS011;61291;52.524;13.422;2023-02-24T07:58:51;64.90;;;60.50;;
5710;SDS011;61291;52.524;13.422;2023-02-24T08:01:23;61.27;;;56.97;;
5710;SDS011;61291;52.524;13.422;2023-02-24T08:03:53;68.70;;;63.63;;
5710;SDS011;61291;52.524;13.422;2023-02-24T08:06:22;60.67;;;56.17;;
5710;SDS011;61291;52.524;13.422;2023-02-24T08:09:02;64.17;;;59.13;;
5710;SDS011;61291;52.524;13.422;2023-02-24T08:11:51;60.80;;;56.20;;
5710;SDS011;61291;52.524;13.422;2023-02-24T08:14:18;63.10;;;57.83;;
5710;SDS011;61291;52.524;13.422;2023-02-24T08:16:49;64.43;;;60.00;;
5710;SDS011;61291;52.524;13.422;2023-02-24T08:19:17;66.50;;;61.87;;
5710;SDS011;61291;52.524;13.422;2023-02-24T08:21:45;65.00;;;60.27;;
5710;SDS011;61291;52.524;13.422;2023-02-24T08:24:15;64.17;;;58.97;;
5710;SDS011;61291;52.524;13.422;2023-02-24T08:26:43;65.27;;;58.97;;
5710;SDS011;61291;52.524;13.422;2023-02-24T08:29:12;64.43;;;59.57;;
5710;SDS011;61291;52.524;13.422;2023-02-24T08:31:37;66.40;;;61.53;;
5710;SDS011;61291;52.524;13.422;2023-02-24T08:34:03;69.77;;;64.33;;
5710;SDS011;61291;52.524;13.422;2023-02-24T08:36:28;64.27;;;60.03;;
5710;SDS011;61291;52.524;13.422;2023-02-24T08:38:54;65.27;;;59.50;;
5710;SDS011;61291;52.524;13.422;2023-02-24T08:41:23;66.80;;;60.87;;
5710;SDS011;61291;52.524;13.422;2023-02-24T08:44:08;67.43;;;62.10;;
5710;SDS011;61291;52.524;13.422;2023-02-24T08:46:34;63.23;;;58.40;;
5710;SDS011;61291;52.524;13.422;2023-02-24T08:49:01;67.60;;;62.07;;
5710;SDS011;61291;52.524;13.422;2023-02-24T08:51:35;70.20;;;64.90;;
5710;SDS011;61291;52.524;13.422;2023-02-24T08:54:08;71.57;;;66.37;;
5710;SDS011;61291;52.524;13.422;2023-02-24T08:56:39;71.80;;;65.53;;
5710;SDS011;61291;52.524;13.422;2023-02-24T08:59:07;72.73;;;66.70;;
5710;SDS011;61291;52.524;13.422;2023-02-24T09:01:53;71.07;;;64.80;;
5710;SDS011;61291;52.524;13.422;2023-02-24T09:04:38;67.40;;;62.73;;
5710;SDS011;61291;52.524;13.422;2023-02-24T09:07:04;67.17;;;60.87;;
5710;SDS011;61291;52.524;13.422;2023-02-24T09:09:34;72.00;;;66.20;;
5710;SDS011;61291;52.524;13.422;2023-02-24T09:12:05;74.40;;;68.97;;
5710;SDS011;61291;52.524;13.422;2023-02-24T09:14:32;66.10;;;61.43;;
5710;SDS011;61291;52.524;13.422;2023-02-24T09:17:00;67.43;;;62.17;;
5710;SDS011;61291;52.524;13.422;2023-02-24T09:22:26;64.97;;;59.37;;
5710;SDS011;61291;52.524;13.422;2023-02-24T09:25:04;58.03;;;53.60;;
5710;SDS011;61291;52.524;13.422;2023-02-24T09:27:44;67.83;;;62.83;;
5710;SDS011;61291;52.524;13.422;2023-02-24T09:30:17;69.37;;;64.60;;
5710;SDS011;61291;52.524;13.422;2023-02-24T09:33:09;65.37;;;60.50;;
5710;SDS011;61291;52.524;13.422;2023-02-24T09:38:17;68.60;;;63.20;;
5710;SDS011;61291;52.524;13.422;2023-02-24T09:40:46;65.07;;;60.10;;
5710;SDS011;61291;52.524;13.422;2023-02-24T09:43:20;64.47;;;59.97;;
5710;SDS011;61291;52.524;13.422;2023-02-24T09:46:01;65.33;;;60.63;;
5710;SDS011;61291;52.524;13.422;2023-02-24T09:48:39;66.43;;;61.33;;
5710;SDS011;61291;52.524;13.422;2023-02-24T09:51:13;68.53;;;63.53;;
5710;SDS011;61291;52.524;13.422;2023-02-24T09:53:45;64.80;;;60.17;;
5710;SDS011;61291;52.524;13.422;2023-02-24T09:56:17;59.40;;;55.27;;
5710;SDS011;61291;52.524;13.422;2023-02-24T09:58:53;62.87;;;58.67;;
5710;SDS011;61291;52.524;13.422;2023-02-24T10:01:51;68.57;;;62.87;;
5710;SDS011;61291;52.524;13.422;2023-02-24T10:09:56;67.17;;;62.57;;
5710;SDS011;61291;52.524;13.422;2023-02-24T10:12:43;68.17;;;63.23;;
5710;SDS011;61291;52.524;13.422;2023-02-24T10:15:13;64.27;;;59.97;;
5710;SDS011;61291;52.524;13.422;2023-02-24T10:17:51;67.63;;;63.13;;
5710;SDS011;61291;52.524;13.422;2023-02-24T10:20:23;68.40;;;63.80;;
5710;SDS011;61291;52.524;13.422;2023-02-24T10:26:09;66.73;;;61.27;;
5710;SDS011;61291;52.524;13.422;2023-02-24T10:28:58;69.97;;;64.00;;
5710;SDS011;61291;52.524;13.422;2023-02-24T10:31:45;65.60;;;60.60;;
5710;SDS011;61291;52.524;13.422;2023-02-24T10:34:13;62.27;;;57.90;;
5710;SDS011;61291;52.524;13.422;2023-02-24T10:36:49;64.50;;;59.60;;
5710;SDS011;61291;52.524;13.422;2023-02-24T10:39:16;61.40;;;56.80;;
5710;SDS011;61291;52.524;13.422;2023-02-24T10:41:57;62.57;;;58.20;;
5710;SDS011;61291;52.524;13.422;2023-02-24T10:44:39;64.13;;;59.23;;
5710;SDS011;61291;52.524;13.422;2023-02-24T10:47:16;57.35;;;53.13;;
5710;SDS011;61291;52.524;13.422;2023-02-24T10:49:57;64.33;;;59.37;;
5710;SDS011;61291;52.524;13.422;2023-02-24T10:52:25;62.93;;;58.73;;
5710;SDS011;61291;52.524;13.422;2023-02-24T10:55:02;66.73;;;62.20;;
5710;SDS011;61291;52.524;13.422;2023-02-24T10:57:52;67.13;;;62.33;;
5710;SDS011;61291;52.524;13.422;2023-02-24T11:00:35;67.20;;;62.40;;
5710;SDS011;61291;52.524;13.422;2023-02-24T11:03:17;66.90;;;62.13;;
5710;SDS011;61291;52.524;13.422;2023-02-24T11:06:00;70.47;;;65.13;;
5710;SDS011;61291;52.524;13.422;2023-02-24T11:08:30;68.97;;;64.13;;
5710;SDS011;61291;52.524;13.422;2023-02-24T11:11:17;63.87;;;59.33;;
5710;SDS011;61291;52.524;13.422;2023-02-24T11:13:55;64.37;;;59.50;;
5710;SDS011;61291;52.524;13.422;2023-02-24T11:16:51;60.53;;;56.20;;
5710;SDS011;61291;52.524;13.422;2023-02-24T11:19:43;66.30;;;60.90;;
5710;SDS011;61291;52.524;13.422;2023-02-24T11:22:35;65.03;;;59.97;;
5710;SDS011;61291;52.524;13.422;2023-02-24T11:25:07;62.87;;;58.20;;
5710;SDS011;61291;52.524;13.422;2023-02-24T11:27:41;63.53;;;59.03;;
5710;SDS011;61291;52.524;13.422;2023-02-24T11:30:19;63.03;;;58.17;;
5710;SDS011;61291;52.524;13.422;2023-02-24T11:35:45;61.50;;;57.40;;
5710;SDS011;61291;52.524;13.422;2023-02-24T11:38:39;63.43;;;59.23;;
5710;SDS011;61291;52.524;13.422;2023-02-24T11:43:36;64.60;;;60.00;;
5710;SDS011;61291;52.524;13.422;2023-02-24T11:46:06;67.70;;;62.83;;
5710;SDS011;61291;52.524;13.422;2023-02-24T11:48:38;66.30;;;61.50;;
5710;SDS011;61291;52.524;13.422;2023-02-24T11:51:11;65.90;;;60.93;;
5710;SDS011;61291;52.524;13.422;2023-02-24T11:59:18;64.20;;;59.60;;
5710;SDS011;61291;52.524;13.422;2023-02-24T12:01:58;66.80;;;61.27;;
5710;SDS011;61291;52.524;13.422;2023-02-24T12:04:45;62.50;;;58.20;;
5710;SDS011;61291;52.524;13.422;2023-02-24T12:07:31;61.70;;;57.10;;
5710;SDS011;61291;52.524;13.422;2023-02-24T12:12:43;64.73;;;60.30;;
5710;SDS011;61291;52.524;13.422;2023-02-24T12:15:21;62.73;;;57.90;;
5710;SDS011;61291;52.524;13.422;2023-02-24T12:18:01;65.77;;;60.47;;
5710;SDS011;61291;52.524;13.422;2023-02-24T12:21:04;64.30;;;60.10;;
5710;SDS011;61291;52.524;13.422;2023-02-24T12:23:33;68.27;;;63.57;;
5710;SDS011;61291;52.524;13.422;2023-02-24T12:34:17;64.03;;;59.40;;
5710;SDS011;61291;52.524;13.422;2023-02-24T12:40:13;60.30;;;56.30;;
5710;SDS011;61291;52.524;13.422;2023-02-24T12:42:56;64.20;;;59.40;;
5710;SDS011;61291;52.524;13.422;2023-02-24T12:45:59;63.13;;;58.23;;
5710;SDS011;61291;52.524;13.422;2023-02-24T12:51:48;66.23;;;61.60;;
5710;SDS011;61291;52.524;13.422;2023-02-24T12:54:28;65.90;;;61.60;;
5710;SDS011;61291;52.524;13.422;2023-02-24T12:57:04;61.47;;;56.97;;
5710;SDS011;61291;52.524;13.422;2023-02-24T12:59:44;58.87;;;54.57;;
5710;SDS011;61291;52.524;13.422;2023-02-24T13:02:18;66.33;;;61.43;;
5710;SDS011;61291;52.524;13.422;2023-02-24T13:07:51;62.27;;;58.07;;
5710;SDS011;61291;52.524;13.422;2023-02-24T13:10:37;62.63;;;57.97;;
5710;SDS011;61291;52.524;13.422;2023-02-24T13:13:19;61.37;;;57.20;;
5710;SDS011;61291;52.524;13.422;2023-02-24T13:15:53;64.80;;;59.73;;
5710;SDS011;61291;52.524;13.422;2023-02-24T13:18:23;65.20;;;60.70;;
5710;SDS011;61291;52.524;13.422;2023-02-24T13:21:01;62.80;;;58.80;;
5710;SDS011;61291;52.524;13.422;2023-02-24T13:23:50;68.67;;;64.07;;
5710;SDS011;61291;52.524;13.422;2023-02-24T13:26:25;71.20;;;66.27;;
5710;SDS011;61291;52.524;13.422;2023-02-24T13:28:57;69.33;;;63.63;;
5710;SDS011;61291;52.524;13.422;2023-02-24T13:31:43;71.43;;;66.63;;
5710;SDS011;61291;52.524;13.422;2023-02-24T13:34:12;68.33;;;63.93;;
5710;SDS011;61291;52.524;13.422;2023-02-24T13:36:46;55.30;;;51.10;;
5710;SDS011;61291;52.524;13.422;2023-02-24T13:39:20;70.90;;;66.03;;
5710;SDS011;61291;52.524;13.422;2023-02-24T13:41:59;66.93;;;62.70;;
5710;SDS011;61291;52.524;13.422;2023-02-24T13:44:46;66.53;;;61.50;;
5710;SDS011;61291;52.524;13.422;2023-02-24T13:47:24;53.90;;;49.90;;
5710;SDS011;61291;52.524;13.422;2023-02-24T13:52:56;62.53;;;58.33;;
5710;SDS011;61291;52.524;13.422;2023-02-24T13:56:08;66.67;;;62.57;;
5710;SDS011;61291;52.524;13.422;2023-02-24T14:04:35;69.37;;;64.17;;
5710;SDS011;61291;52.524;13.422;2023-02-24T14:07:08;64.23;;;60.00;;
5710;SDS011;61291;52.524;13.422;2023-02-24T14:09:38;66.60;;;61.17;;
5710;SDS011;61291;52.524;13.422;2023-02-24T14:12:24;63.23;;;59.10;;
5710;SDS011;61291;52.524;13.422;2023-02-24T14:14:52;65.60;;;61.20;;
5710;SDS011;61291;52.524;13.422;2023-02-24T14:17:20;66.33;;;62.03;;
5710;SDS011;61291;52.524;13.422;2023-02-24T14:22:34;68.13;;;63.83;;
5710;SDS011;61291;52.524;13.422;2023-02-24T14:25:06;64.97;;;60.40;;
5710;SDS011;61291;52.524;13.422;2023-02-24T14:27:35;63.90;;;59.50;;
5710;SDS011;61291;52.524;13.422;2023-02-24T14:30:02;64.30;;;60.07;;
5710;SDS011;61291;52.524;13.422;2023-02-24T14:32:28;63.00;;;58.50;;
5710;SDS011;61291;52.524;13.422;2023-02-24T14:34:54;66.47;;;61.97;;
5710;SDS011;61291;52.524;13.422;2023-02-24T14:37:22;65.57;;;61.37;;
5710;SDS011;61291;52.524;13.422;2023-02-24T14:39:53;63.77;;;59.10;;
5710;SDS011;61291;52.524;13.422;2023-02-24T14:42:20;60.83;;;56.83;;
5710;SDS011;61291;52.524;13.422;2023-02-24T14:44:47;65.17;;;60.83;;
5710;SDS011;61291;52.524;13.422;2023-02-24T14:47:19;61.20;;;57.20;;
5710;SDS011;61291;52.524;13.422;2023-02-24T14:49:58;63.57;;;59.37;;
5710;SDS011;61291;52.524;13.422;2023-02-24T14:52:46;66.17;;;61.13;;
5710;SDS011;61291;52.524;13.422;2023-02-24T14:55:31;62.83;;;58.37;;
5710;SDS011;61291;52.524;13.422;2023-02-24T14:58:12;61.67;;;57.13;;
5710;SDS011;61291;52.524;13.422;2023-02-24T15:00:52;61.70;;;57.67;;
5710;SDS011;61291;52.524;13.422;2023-02-24T15:03:34;59.77;;;55.60;;
5710;SDS011;61291;52.524;13.422;2023-02-24T15:06:06;61.50;;;57.47;;
5710;SDS011;61291;52.524;13.422;2023-02-24T15:08:39;64.53;;;60.03;;
5710;SDS011;61291;52.524;13.422;2023-02-24T15:13:42;58.90;;;55.10;;
5710;SDS011;61291;52.524;13.422;2023-02-24T15:16:20;57.37;;;53.57;;
5710;SDS011;61291;52.524;13.422;2023-02-24T15:19:00;61.33;;;57.23;;
5710;SDS011;61291;52.524;13.422;2023-02-24T15:21:30;59.13;;;54.93;;
5710;SDS011;61291;52.524;13.422;2023-02-24T15:23:59;56.87;;;52.70;;
5710;SDS011;61291;52.524;13.422;2023-02-24T15:26:28;56.83;;;53.00;;
5710;SDS011;61291;52.524;13.422;2023-02-24T15:28:59;53.60;;;49.50;;
5710;SDS011;61291;52.524;13.422;2023-02-24T15:31:26;56.03;;;52.30;;
5710;SDS011;61291;52.524;13.422;2023-02-24T15:33:55;56.13;;;52.30;;
5710;SDS011;61291;52.524;13.422;2023-02-24T15:36:31;55.20;;;51.40;;
5710;SDS011;61291;52.524;13.422;2023-02-24T15:39:00;56.17;;;52.27;;
5710;SDS011;61291;52.524;13.422;2023-02-24T15:41:37;54.30;;;50.70;;
5710;SDS011;61291;52.524;13.422;2023-02-24T15:44:22;53.93;;;50.40;;
5710;SDS011;61291;52.524;13.422;2023-02-24T15:46:57;55.67;;;51.83;;
5710;SDS011;61291;52.524;13.422;2023-02-24T15:49:24;53.83;;;50.33;;
5710;SDS011;61291;52.524;13.422;2023-02-24T15:51:53;58.20;;;54.37;;
5710;SDS011;61291;52.524;13.422;2023-02-24T15:54:26;55.07;;;51.20;;
5710;SDS011;61291;52.524;13.422;2023-02-24T15:56:55;54.57;;;51.07;;
5710;SDS011;61291;52.524;13.422;2023-02-24T15:59:25;55.57;;;52.07;;
5710;SDS011;61291;52.524;13.422;2023-02-24T16:01:51;54.13;;;50.43;;
5710;SDS011;61291;52.524;13.422;2023-02-24T16:04:19;55.70;;;52.00;;
5710;SDS011;61291;52.524;13.422;2023-02-24T16:06:46;56.23;;;52.50;;
5710;SDS011;61291;52.524;13.422;2023-02-24T16:09:18;54.70;;;50.80;;
5710;SDS011;61291;52.524;13.422;2023-02-24T16:12:01;56.17;;;52.73;;
5710;SDS011;61291;52.524;13.422;2023-02-24T16:14:29;53.40;;;50.10;;
5710;SDS011;61291;52.524;13.422;2023-02-24T16:16:55;57.70;;;53.73;;
5710;SDS011;61291;52.524;13.422;2023-02-24T16:19:22;58.73;;;54.90;;
5710;SDS011;61291;52.524;13.422;2023-02-24T16:21:47;54.17;;;50.35;;